sensor_id;sensor_type;location;lat;lon;timestamp;P1;durP1;ratioP1;P2;durP2;ratioP2
2976;SDS011;1498;51.500;7.440;2022-11-20T00:00:06;37.40;;;20.27;;
2976;SDS011;1498;51.500;7.440;2022-11-20T00:02:33;32.67;;;20.87;;
2976;SDS011;1498;51.500;7.440;2022-11-20T00:04:58;32.10;;;19.10;;
2976;SDS011;1498;51.500;7.440;2022-11-20T00:07:24;32.43;;;20.07;;
2976;SDS011;1498;51.500;7.440;2022-11-20T00:09:49;34.67;;;20.00;;
2976;SDS011;1498;51.500;7.440;2022-11-20T00:12:15;34.47;;;21.53;;
2976;SDS011;1498;51.500;7.440;2022-11-20T00:14:41;29.90;;;18.70;;
2976;SDS011;1498;51.500;7.440;2022-11-20T00:17:06;32.77;;;21.23;;
2976;SDS011;1498;51.500;7.440;2022-11-20T00:19:32;38.30;;;21.63;;
2976;SDS011;1498;51.500;7.440;2022-11-20T00:21:57;31.80;;;19.67;;
2976;SDS011;1498;51.500;7.440;2022-11-20T00:24:23;34.57;;;21.37;;
2976;SDS011;1498;51.500;7.440;2022-11-20T00:26:48;34.07;;;21.73;;
2976;SDS011;1498;51.500;7.440;2022-11-20T00:29:14;39.23;;;22.20;;
2976;SDS011;1498;51.500;7.440;2022-11-20T00:31:39;28.60;;;20.90;;
2976;SDS011;1498;51.500;7.440;2022-11-20T00:34:05;33.27;;;18.83;;
2976;SDS011;1498;51.500;7.440;2022-11-20T00:36:32;37.33;;;20.70;;
2976;SDS011;1498;51.500;7.440;2022-11-20T00:38:58;32.37;;;21.10;;
2976;SDS011;1498;51.500;7.440;2022-11-20T00:41:24;35.83;;;21.20;;
2976;SDS011;1498;51.500;7.440;2022-11-20T00:43:53;33.83;;;21.10;;
2976;SDS011;1498;51.500;7.440;2022-11-20T00:46:21;33.93;;;19.93;;
2976;SDS011;1498;51.500;7.440;2022-11-20T00:48:47;30.53;;;21.07;;
2976;SDS011;1498;51.500;7.440;2022-11-20T00:51:14;40.20;;;22.73;;
2976;SDS011;1498;51.500;7.440;2022-11-20T00:53:44;49.10;;;24.80;;
2976;SDS011;1498;51.500;7.440;2022-11-20T00:56:11;38.57;;;20.30;;
2976;SDS011;1498;51.500;7.440;2022-11-20T00:58:39;34.40;;;24.23;;
2976;SDS011;1498;51.500;7.440;2022-11-20T01:03:35;36.70;;;22.50;;
2976;SDS011;1498;51.500;7.440;2022-11-20T01:06:04;39.33;;;22.13;;
2976;SDS011;1498;51.500;7.440;2022-11-20T01:08:31;38.90;;;21.60;;
2976;SDS011;1498;51.500;7.440;2022-11-20T01:11:02;37.60;;;22.03;;
2976;SDS011;1498;51.500;7.440;2022-11-20T01:13:30;29.20;;;19.70;;
2976;SDS011;1498;51.500;7.440;2022-11-20T01:16:12;31.77;;;20.13;;
2976;SDS011;1498;51.500;7.440;2022-11-20T01:18:44;34.70;;;22.17;;
2976;SDS011;1498;51.500;7.440;2022-11-20T01:21:13;33.27;;;20.03;;
2976;SDS011;1498;51.500;7.440;2022-11-20T01:23:41;32.67;;;20.60;;
2976;SDS011;1498;51.500;7.440;2022-11-20T01:26:09;34.80;;;21.43;;
2976;SDS011;1498;51.500;7.440;2022-11-20T01:28:36;35.27;;;21.77;;
2976;SDS011;1498;51.500;7.440;2022-11-20T01:31:10;34.60;;;20.77;;
2976;SDS011;1498;51.500;7.440;2022-11-20T05:31:17;24.67;;;17.33;;
2976;SDS011;1498;51.500;7.440;2022-11-20T05:33:44;25.60;;;16.80;;
2976;SDS011;1498;51.500;7.440;2022-11-20T05:36:11;26.83;;;17.50;;
2976;SDS011;1498;51.500;7.440;2022-11-20T05:38:37;26.63;;;17.90;;
2976;SDS011;1498;51.500;7.440;2022-11-20T05:41:04;25.63;;;18.03;;
2976;SDS011;1498;51.500;7.440;2022-11-20T05:43:32;24.03;;;17.47;;
2976;SDS011;1498;51.500;7.440;2022-11-20T05:46:01;30.73;;;17.90;;
2976;SDS011;1498;51.500;7.440;2022-11-20T05:48:27;26.33;;;17.43;;
2976;SDS011;1498;51.500;7.440;2022-11-20T05:50:52;25.73;;;16.13;;
2976;SDS011;1498;51.500;7.440;2022-11-20T05:53:18;26.10;;;18.77;;
2976;SDS011;1498;51.500;7.440;2022-11-20T05:55:44;33.80;;;19.70;;
2976;SDS011;1498;51.500;7.440;2022-11-20T05:58:09;26.20;;;17.70;;
2976;SDS011;1498;51.500;7.440;2022-11-20T06:00:35;24.90;;;17.37;;
2976;SDS011;1498;51.500;7.440;2022-11-20T06:03:00;25.00;;;17.93;;
2976;SDS011;1498;51.500;7.440;2022-11-20T06:05:26;23.77;;;16.30;;
2976;SDS011;1498;51.500;7.440;2022-11-20T06:07:52;25.40;;;17.37;;
2976;SDS011;1498;51.500;7.440;2022-11-20T06:10:17;28.50;;;16.70;;
2976;SDS011;1498;51.500;7.440;2022-11-20T06:12:43;24.13;;;17.20;;
2976;SDS011;1498;51.500;7.440;2022-11-20T06:15:08;22.90;;;16.07;;
2976;SDS011;1498;51.500;7.440;2022-11-20T06:17:34;25.47;;;17.83;;
2976;SDS011;1498;51.500;7.440;2022-11-20T06:20:00;27.57;;;17.77;;
2976;SDS011;1498;51.500;7.440;2022-11-20T06:22:25;24.27;;;18.20;;
2976;SDS011;1498;51.500;7.440;2022-11-20T06:24:51;24.97;;;16.87;;
2976;SDS011;1498;51.500;7.440;2022-11-20T06:27:16;23.33;;;16.53;;
2976;SDS011;1498;51.500;7.440;2022-11-20T06:29:42;30.70;;;18.00;;
2976;SDS011;1498;51.500;7.440;2022-11-20T06:32:07;24.27;;;16.33;;
2976;SDS011;1498;51.500;7.440;2022-11-20T06:34:33;27.20;;;19.50;;
2976;SDS011;1498;51.500;7.440;2022-11-20T06:36:58;28.67;;;17.63;;
2976;SDS011;1498;51.500;7.440;2022-11-20T06:39:24;25.00;;;15.93;;
2976;SDS011;1498;51.500;7.440;2022-11-20T06:41:49;29.07;;;17.40;;
2976;SDS011;1498;51.500;7.440;2022-11-20T06:44:15;24.10;;;17.00;;
2976;SDS011;1498;51.500;7.440;2022-11-20T06:46:40;25.30;;;16.40;;
2976;SDS011;1498;51.500;7.440;2022-11-20T06:49:06;27.60;;;16.17;;
2976;SDS011;1498;51.500;7.440;2022-11-20T06:51:31;24.87;;;15.87;;
2976;SDS011;1498;51.500;7.440;2022-11-20T06:53:57;26.60;;;16.37;;
2976;SDS011;1498;51.500;7.440;2022-11-20T06:56:23;25.70;;;17.47;;
2976;SDS011;1498;51.500;7.440;2022-11-20T06:58:48;26.33;;;17.37;;
2976;SDS011;1498;51.500;7.440;2022-11-20T07:01:14;24.70;;;17.53;;
2976;SDS011;1498;51.500;7.440;2022-11-20T07:03:40;32.10;;;17.80;;
2976;SDS011;1498;51.500;7.440;2022-11-20T07:06:07;30.53;;;16.67;;
2976;SDS011;1498;51.500;7.440;2022-11-20T07:08:33;22.33;;;15.60;;
2976;SDS011;1498;51.500;7.440;2022-11-20T07:11:00;22.13;;;15.87;;
2976;SDS011;1498;51.500;7.440;2022-11-20T07:13:28;25.37;;;16.30;;
2976;SDS011;1498;51.500;7.440;2022-11-20T07:15:54;19.37;;;14.20;;
2976;SDS011;1498;51.500;7.440;2022-11-20T07:18:20;29.47;;;16.20;;
2976;SDS011;1498;51.500;7.440;2022-11-20T07:20:46;26.13;;;15.97;;
2976;SDS011;1498;51.500;7.440;2022-11-20T07:23:11;27.80;;;16.20;;
2976;SDS011;1498;51.500;7.440;2022-11-20T07:25:37;26.93;;;17.50;;
2976;SDS011;1498;51.500;7.440;2022-11-20T07:28:02;24.90;;;17.37;;
2976;SDS011;1498;51.500;7.440;2022-11-20T07:30:28;24.47;;;17.23;;
2976;SDS011;1498;51.500;7.440;2022-11-20T07:32:55;23.90;;;15.80;;
2976;SDS011;1498;51.500;7.440;2022-11-20T07:35:21;22.80;;;16.43;;
2976;SDS011;1498;51.500;7.440;2022-11-20T07:37:47;22.23;;;16.13;;
2976;SDS011;1498;51.500;7.440;2022-11-20T07:40:13;26.50;;;16.27;;
2976;SDS011;1498;51.500;7.440;2022-11-20T07:42:46;22.50;;;14.83;;
2976;SDS011;1498;51.500;7.440;2022-11-20T07:45:20;30.27;;;16.00;;
2976;SDS011;1498;51.500;7.440;2022-11-20T07:47:46;28.00;;;17.23;;
2976;SDS011;1498;51.500;7.440;2022-11-20T07:50:12;29.03;;;18.37;;
2976;SDS011;1498;51.500;7.440;2022-11-20T07:52:38;24.00;;;16.10;;
2976;SDS011;1498;51.500;7.440;2022-11-20T07:55:04;28.90;;;17.60;;
2976;SDS011;1498;51.500;7.440;2022-11-20T07:57:30;26.03;;;15.33;;
2976;SDS011;1498;51.500;7.440;2022-11-20T07:59:56;26.90;;;16.60;;
2976;SDS011;1498;51.500;7.440;2022-11-20T08:02:21;24.20;;;17.20;;
2976;SDS011;1498;51.500;7.440;2022-11-20T08:04:47;25.30;;;16.90;;
2976;SDS011;1498;51.500;7.440;2022-11-20T08:07:13;24.90;;;15.10;;
2976;SDS011;1498;51.500;7.440;2022-11-20T08:09:38;26.93;;;14.97;;
2976;SDS011;1498;51.500;7.440;2022-11-20T08:12:04;22.20;;;16.20;;
2976;SDS011;1498;51.500;7.440;2022-11-20T08:14:48;30.73;;;17.60;;
2976;SDS011;1498;51.500;7.440;2022-11-20T08:17:14;23.27;;;16.60;;
2976;SDS011;1498;51.500;7.440;2022-11-20T08:19:39;23.60;;;15.10;;
2976;SDS011;1498;51.500;7.440;2022-11-20T08:22:05;26.80;;;16.10;;
2976;SDS011;1498;51.500;7.440;2022-11-20T08:24:30;22.43;;;16.43;;
2976;SDS011;1498;51.500;7.440;2022-11-20T08:26:59;37.60;;;16.57;;
2976;SDS011;1498;51.500;7.440;2022-11-20T08:29:27;22.73;;;15.70;;
2976;SDS011;1498;51.500;7.440;2022-11-20T08:31:53;23.30;;;15.07;;
2976;SDS011;1498;51.500;7.440;2022-11-20T08:34:18;24.20;;;16.70;;
2976;SDS011;1498;51.500;7.440;2022-11-20T08:36:44;22.40;;;14.93;;
2976;SDS011;1498;51.500;7.440;2022-11-20T08:39:13;23.20;;;16.67;;
2976;SDS011;1498;51.500;7.440;2022-11-20T08:41:39;23.03;;;15.80;;
2976;SDS011;1498;51.500;7.440;2022-11-20T08:44:05;20.87;;;15.03;;
2976;SDS011;1498;51.500;7.440;2022-11-20T08:46:33;28.00;;;17.80;;
2976;SDS011;1498;51.500;7.440;2022-11-20T08:49:06;22.37;;;15.00;;
2976;SDS011;1498;51.500;7.440;2022-11-20T08:51:33;23.00;;;15.10;;
2976;SDS011;1498;51.500;7.440;2022-11-20T08:53:59;24.10;;;15.30;;
2976;SDS011;1498;51.500;7.440;2022-11-20T08:56:25;24.07;;;16.00;;
2976;SDS011;1498;51.500;7.440;2022-11-20T08:58:51;23.17;;;15.07;;
2976;SDS011;1498;51.500;7.440;2022-11-20T09:01:19;18.03;;;13.73;;
2976;SDS011;1498;51.500;7.440;2022-11-20T09:03:46;19.73;;;15.40;;
2976;SDS011;1498;51.500;7.440;2022-11-20T09:06:12;18.87;;;14.50;;
2976;SDS011;1498;51.500;7.440;2022-11-20T09:08:38;24.17;;;16.47;;
2976;SDS011;1498;51.500;7.440;2022-11-20T09:11:05;20.97;;;15.87;;
2976;SDS011;1498;51.500;7.440;2022-11-20T09:13:31;31.00;;;16.40;;
2976;SDS011;1498;51.500;7.440;2022-11-20T09:15:58;23.07;;;15.67;;
2976;SDS011;1498;51.500;7.440;2022-11-20T09:18:26;21.03;;;15.40;;
2976;SDS011;1498;51.500;7.440;2022-11-20T09:20:56;23.10;;;15.23;;
2976;SDS011;1498;51.500;7.440;2022-11-20T09:23:23;19.40;;;14.13;;
2976;SDS011;1498;51.500;7.440;2022-11-20T09:25:49;21.67;;;15.80;;
2976;SDS011;1498;51.500;7.440;2022-11-20T09:28:14;26.37;;;15.90;;
2976;SDS011;1498;51.500;7.440;2022-11-20T09:30:41;23.70;;;14.77;;
2976;SDS011;1498;51.500;7.440;2022-11-20T09:33:06;24.33;;;15.27;;
2976;SDS011;1498;51.500;7.440;2022-11-20T09:35:33;19.63;;;13.00;;
2976;SDS011;1498;51.500;7.440;2022-11-20T09:38:03;23.20;;;13.70;;
2976;SDS011;1498;51.500;7.440;2022-11-20T09:40:32;18.50;;;12.77;;
2976;SDS011;1498;51.500;7.440;2022-11-20T09:43:12;19.50;;;12.80;;
2976;SDS011;1498;51.500;7.440;2022-11-20T09:45:47;23.17;;;15.17;;
2976;SDS011;1498;51.500;7.440;2022-11-20T09:48:34;21.33;;;14.27;;
2976;SDS011;1498;51.500;7.440;2022-11-20T09:56:27;22.53;;;14.40;;
2976;SDS011;1498;51.500;7.440;2022-11-20T09:58:54;20.60;;;13.10;;
2976;SDS011;1498;51.500;7.440;2022-11-20T10:01:26;21.40;;;14.40;;
2976;SDS011;1498;51.500;7.440;2022-11-20T10:04:12;23.80;;;15.40;;
2976;SDS011;1498;51.500;7.440;2022-11-20T10:09:31;23.03;;;13.80;;
2976;SDS011;1498;51.500;7.440;2022-11-20T10:22:44;24.37;;;14.67;;
2976;SDS011;1498;51.500;7.440;2022-11-20T10:28:10;24.63;;;14.73;;
2976;SDS011;1498;51.500;7.440;2022-11-20T10:30:46;19.60;;;14.20;;
2976;SDS011;1498;51.500;7.440;2022-11-20T10:33:22;25.03;;;17.90;;
2976;SDS011;1498;51.500;7.440;2022-11-20T10:35:56;24.00;;;15.00;;
2976;SDS011;1498;51.500;7.440;2022-11-20T10:38:45;19.83;;;12.63;;
2976;SDS011;1498;51.500;7.440;2022-11-20T10:41:19;15.23;;;10.63;;
2976;SDS011;1498;51.500;7.440;2022-11-20T10:43:53;14.40;;;10.77;;
2976;SDS011;1498;51.500;7.440;2022-11-20T10:46:44;16.93;;;11.33;;
2976;SDS011;1498;51.500;7.440;2022-11-20T10:49:14;19.33;;;12.07;;
2976;SDS011;1498;51.500;7.440;2022-11-20T11:00:05;15.30;;;10.67;;
2976;SDS011;1498;51.500;7.440;2022-11-20T11:02:46;13.70;;;8.67;;
2976;SDS011;1498;51.500;7.440;2022-11-20T11:05:18;15.63;;;10.00;;
2976;SDS011;1498;51.500;7.440;2022-11-20T11:08:04;13.60;;;9.30;;
2976;SDS011;1498;51.500;7.440;2022-11-20T11:13:07;14.80;;;10.23;;
2976;SDS011;1498;51.500;7.440;2022-11-20T11:15:43;14.00;;;9.90;;
2976;SDS011;1498;51.500;7.440;2022-11-20T11:18:09;13.47;;;9.10;;
2976;SDS011;1498;51.500;7.440;2022-11-20T11:20:36;15.87;;;10.47;;
2976;SDS011;1498;51.500;7.440;2022-11-20T11:23:02;16.07;;;10.87;;
2976;SDS011;1498;51.500;7.440;2022-11-20T11:25:32;11.80;;;8.70;;
2976;SDS011;1498;51.500;7.440;2022-11-20T11:28:03;14.20;;;9.80;;
2976;SDS011;1498;51.500;7.440;2022-11-20T11:30:40;15.23;;;10.73;;
2976;SDS011;1498;51.500;7.440;2022-11-20T11:33:12;17.27;;;11.60;;
2976;SDS011;1498;51.500;7.440;2022-11-20T11:35:46;24.17;;;15.60;;
2976;SDS011;1498;51.500;7.440;2022-11-20T11:38:14;17.87;;;13.40;;
2976;SDS011;1498;51.500;7.440;2022-11-20T11:40:42;18.73;;;12.87;;
2976;SDS011;1498;51.500;7.440;2022-11-20T11:43:17;13.93;;;10.10;;
2976;SDS011;1498;51.500;7.440;2022-11-20T11:46:25;14.33;;;10.17;;
2976;SDS011;1498;51.500;7.440;2022-11-20T11:49:11;15.53;;;10.77;;
2976;SDS011;1498;51.500;7.440;2022-11-20T11:57:41;15.93;;;10.43;;
2976;SDS011;1498;51.500;7.440;2022-11-20T12:00:09;13.00;;;9.07;;
2976;SDS011;1498;51.500;7.440;2022-11-20T12:05:24;15.90;;;10.30;;
2976;SDS011;1498;51.500;7.440;2022-11-20T12:11:13;14.03;;;9.70;;
2976;SDS011;1498;51.500;7.440;2022-11-20T12:13:53;12.83;;;9.83;;
2976;SDS011;1498;51.500;7.440;2022-11-20T12:16:39;14.53;;;10.03;;
2976;SDS011;1498;51.500;7.440;2022-11-20T12:19:10;14.23;;;8.80;;
2976;SDS011;1498;51.500;7.440;2022-11-20T12:21:46;15.10;;;8.57;;
2976;SDS011;1498;51.500;7.440;2022-11-20T12:30:21;16.57;;;10.37;;
2976;SDS011;1498;51.500;7.440;2022-11-20T12:43:45;10.80;;;8.20;;
2976;SDS011;1498;51.500;7.440;2022-11-20T12:46:45;16.87;;;10.70;;
2976;SDS011;1498;51.500;7.440;2022-11-20T12:54:49;17.13;;;11.07;;
2976;SDS011;1498;51.500;7.440;2022-11-20T13:00:25;16.23;;;9.77;;
2976;SDS011;1498;51.500;7.440;2022-11-20T13:08:30;13.33;;;9.20;;
2976;SDS011;1498;51.500;7.440;2022-11-20T13:11:14;15.60;;;10.33;;
2976;SDS011;1498;51.500;7.440;2022-11-20T13:13:52;13.43;;;9.53;;
2976;SDS011;1498;51.500;7.440;2022-11-20T13:16:40;16.00;;;10.47;;
2976;SDS011;1498;51.500;7.440;2022-11-20T13:19:15;17.77;;;11.20;;
2976;SDS011;1498;51.500;7.440;2022-11-20T13:21:43;14.67;;;10.17;;
2976;SDS011;1498;51.500;7.440;2022-11-20T13:24:22;18.07;;;11.17;;
2976;SDS011;1498;51.500;7.440;2022-11-20T13:29:43;13.60;;;9.77;;
2976;SDS011;1498;51.500;7.440;2022-11-20T13:32:17;13.77;;;9.57;;
2976;SDS011;1498;51.500;7.440;2022-11-20T13:34:51;19.43;;;12.00;;
2976;SDS011;1498;51.500;7.440;2022-11-20T13:37:26;17.00;;;11.07;;
2976;SDS011;1498;51.500;7.440;2022-11-20T13:39:52;19.00;;;11.17;;
2976;SDS011;1498;51.500;7.440;2022-11-20T13:44:50;21.23;;;13.13;;
2976;SDS011;1498;51.500;7.440;2022-11-20T13:47:25;20.00;;;10.50;;
2976;SDS011;1498;51.500;7.440;2022-11-20T13:49:52;17.20;;;11.90;;
2976;SDS011;1498;51.500;7.440;2022-11-20T13:54:51;16.93;;;10.73;;
2976;SDS011;1498;51.500;7.440;2022-11-20T14:00:29;18.87;;;11.20;;
2976;SDS011;1498;51.500;7.440;2022-11-20T14:06:01;20.87;;;12.90;;
2976;SDS011;1498;51.500;7.440;2022-11-20T14:08:39;21.87;;;13.77;;
2976;SDS011;1498;51.500;7.440;2022-11-20T14:11:19;14.47;;;10.67;;
2976;SDS011;1498;51.500;7.440;2022-11-20T14:16:41;21.27;;;14.57;;
2976;SDS011;1498;51.500;7.440;2022-11-20T14:21:46;23.57;;;12.70;;
2976;SDS011;1498;51.500;7.440;2022-11-20T14:24:19;19.37;;;12.70;;
2976;SDS011;1498;51.500;7.440;2022-11-20T14:26:46;16.57;;;11.20;;
2976;SDS011;1498;51.500;7.440;2022-11-20T14:29:13;18.83;;;12.43;;
2976;SDS011;1498;51.500;7.440;2022-11-20T14:31:42;20.70;;;12.33;;
2976;SDS011;1498;51.500;7.440;2022-11-20T14:34:15;19.73;;;11.33;;
2976;SDS011;1498;51.500;7.440;2022-11-20T14:36:44;17.80;;;12.70;;
2976;SDS011;1498;51.500;7.440;2022-11-20T14:39:11;18.90;;;12.60;;
2976;SDS011;1498;51.500;7.440;2022-11-20T14:41:50;18.10;;;11.40;;
2976;SDS011;1498;51.500;7.440;2022-11-20T14:44:16;20.20;;;12.37;;
2976;SDS011;1498;51.500;7.440;2022-11-20T14:46:42;18.90;;;12.87;;
2976;SDS011;1498;51.500;7.440;2022-11-20T14:49:08;21.07;;;13.10;;
2976;SDS011;1498;51.500;7.440;2022-11-20T14:51:37;17.87;;;11.90;;
2976;SDS011;1498;51.500;7.440;2022-11-20T14:54:19;18.40;;;11.70;;
2976;SDS011;1498;51.500;7.440;2022-11-20T14:56:58;17.53;;;13.10;;
2976;SDS011;1498;51.500;7.440;2022-11-20T14:59:27;16.80;;;12.40;;
2976;SDS011;1498;51.500;7.440;2022-11-20T15:01:58;17.67;;;12.17;;
2976;SDS011;1498;51.500;7.440;2022-11-20T15:04:26;19.93;;;11.43;;
2976;SDS011;1498;51.500;7.440;2022-11-20T15:06:52;19.80;;;13.27;;
2976;SDS011;1498;51.500;7.440;2022-11-20T15:09:20;17.20;;;12.17;;
2976;SDS011;1498;51.500;7.440;2022-11-20T15:11:55;20.83;;;13.40;;
2976;SDS011;1498;51.500;7.440;2022-11-20T15:14:23;19.40;;;13.00;;
2976;SDS011;1498;51.500;7.440;2022-11-20T15:16:51;22.10;;;13.87;;
2976;SDS011;1498;51.500;7.440;2022-11-20T15:19:17;18.33;;;12.60;;
2976;SDS011;1498;51.500;7.440;2022-11-20T15:21:45;20.37;;;12.07;;
2976;SDS011;1498;51.500;7.440;2022-11-20T15:24:11;20.63;;;12.87;;
2976;SDS011;1498;51.500;7.440;2022-11-20T15:26:37;20.87;;;13.67;;
2976;SDS011;1498;51.500;7.440;2022-11-20T15:29:07;24.87;;;14.47;;
2976;SDS011;1498;51.500;7.440;2022-11-20T15:31:36;18.63;;;12.83;;
2976;SDS011;1498;51.500;7.440;2022-11-20T15:34:02;21.67;;;13.10;;
2976;SDS011;1498;51.500;7.440;2022-11-20T15:36:32;24.43;;;14.83;;
2976;SDS011;1498;51.500;7.440;2022-11-20T15:38:57;21.50;;;14.37;;
2976;SDS011;1498;51.500;7.440;2022-11-20T15:41:23;23.23;;;15.00;;
2976;SDS011;1498;51.500;7.440;2022-11-20T15:43:48;20.17;;;13.40;;
2976;SDS011;1498;51.500;7.440;2022-11-20T15:46:15;18.80;;;13.20;;
2976;SDS011;1498;51.500;7.440;2022-11-20T15:48:49;23.97;;;13.80;;
2976;SDS011;1498;51.500;7.440;2022-11-20T15:51:25;22.87;;;12.97;;
2976;SDS011;1498;51.500;7.440;2022-11-20T15:53:54;23.53;;;15.30;;
2976;SDS011;1498;51.500;7.440;2022-11-20T15:56:20;24.40;;;14.67;;
2976;SDS011;1498;51.500;7.440;2022-11-20T15:58:46;26.27;;;15.13;;
2976;SDS011;1498;51.500;7.440;2022-11-20T16:01:12;23.90;;;14.57;;
2976;SDS011;1498;51.500;7.440;2022-11-20T16:03:39;24.40;;;15.90;;
2976;SDS011;1498;51.500;7.440;2022-11-20T16:06:05;27.20;;;16.67;;
2976;SDS011;1498;51.500;7.440;2022-11-20T16:08:31;23.83;;;14.10;;
2976;SDS011;1498;51.500;7.440;2022-11-20T16:10:56;25.33;;;15.70;;
2976;SDS011;1498;51.500;7.440;2022-11-20T16:13:22;31.07;;;17.37;;
2976;SDS011;1498;51.500;7.440;2022-11-20T16:16:51;24.70;;;14.23;;
2976;SDS011;1498;51.500;7.440;2022-11-20T16:18:55;28.10;;;18.50;;
2976;SDS011;1498;51.500;7.440;2022-11-20T16:21:20;27.83;;;17.10;;
2976;SDS011;1498;51.500;7.440;2022-11-20T16:23:52;24.20;;;16.73;;
2976;SDS011;1498;51.500;7.440;2022-11-20T16:26:17;27.27;;;17.07;;
2976;SDS011;1498;51.500;7.440;2022-11-20T16:28:43;32.30;;;18.30;;
2976;SDS011;1498;51.500;7.440;2022-11-20T16:31:10;25.77;;;15.73;;
2976;SDS011;1498;51.500;7.440;2022-11-20T16:33:37;23.50;;;16.10;;
2976;SDS011;1498;51.500;7.440;2022-11-20T16:36:07;25.20;;;16.13;;
2976;SDS011;1498;51.500;7.440;2022-11-20T16:38:36;26.77;;;16.53;;
2976;SDS011;1498;51.500;7.440;2022-11-20T16:41:01;34.30;;;19.20;;
2976;SDS011;1498;51.500;7.440;2022-11-20T16:43:27;28.50;;;18.00;;
2976;SDS011;1498;51.500;7.440;2022-11-20T16:45:53;29.47;;;17.53;;
2976;SDS011;1498;51.500;7.440;2022-11-20T16:48:18;33.53;;;16.33;;
2976;SDS011;1498;51.500;7.440;2022-11-20T16:50:45;29.80;;;17.33;;
2976;SDS011;1498;51.500;7.440;2022-11-20T16:53:15;28.00;;;17.47;;
2976;SDS011;1498;51.500;7.440;2022-11-20T16:55:41;32.10;;;17.57;;
2976;SDS011;1498;51.500;7.440;2022-11-20T16:58:07;31.57;;;18.37;;
2976;SDS011;1498;51.500;7.440;2022-11-20T17:00:35;31.00;;;18.47;;
2976;SDS011;1498;51.500;7.440;2022-11-20T17:03:01;28.90;;;17.80;;
2976;SDS011;1498;51.500;7.440;2022-11-20T17:05:31;33.60;;;19.90;;
2976;SDS011;1498;51.500;7.440;2022-11-20T17:07:57;34.40;;;23.50;;
2976;SDS011;1498;51.500;7.440;2022-11-20T17:10:23;34.00;;;23.80;;
2976;SDS011;1498;51.500;7.440;2022-11-20T17:12:48;39.70;;;26.23;;
2976;SDS011;1498;51.500;7.440;2022-11-20T17:15:14;29.40;;;19.13;;
2976;SDS011;1498;51.500;7.440;2022-11-20T17:17:39;38.20;;;20.70;;
2976;SDS011;1498;51.500;7.440;2022-11-20T17:20:05;30.50;;;19.03;;
2976;SDS011;1498;51.500;7.440;2022-11-20T17:22:31;32.77;;;18.97;;
2976;SDS011;1498;51.500;7.440;2022-11-20T17:24:56;30.63;;;19.77;;
2976;SDS011;1498;51.500;7.440;2022-11-20T17:27:22;32.10;;;21.43;;
2976;SDS011;1498;51.500;7.440;2022-11-20T17:29:48;37.27;;;21.83;;
2976;SDS011;1498;51.500;7.440;2022-11-20T17:32:13;38.87;;;22.43;;
2976;SDS011;1498;51.500;7.440;2022-11-20T17:34:39;35.80;;;20.47;;
2976;SDS011;1498;51.500;7.440;2022-11-20T17:37:05;35.63;;;20.17;;
2976;SDS011;1498;51.500;7.440;2022-11-20T17:39:30;37.27;;;21.23;;
2976;SDS011;1498;51.500;7.440;2022-11-20T17:41:56;30.97;;;20.60;;
2976;SDS011;1498;51.500;7.440;2022-11-20T17:44:40;28.70;;;19.37;;
2976;SDS011;1498;51.500;7.440;2022-11-20T17:47:06;33.03;;;19.73;;
2976;SDS011;1498;51.500;7.440;2022-11-20T17:49:32;40.43;;;20.70;;
2976;SDS011;1498;51.500;7.440;2022-11-20T17:51:57;30.07;;;18.40;;
2976;SDS011;1498;51.500;7.440;2022-11-20T17:54:23;33.03;;;20.57;;
2976;SDS011;1498;51.500;7.440;2022-11-20T17:56:49;33.50;;;21.10;;
2976;SDS011;1498;51.500;7.440;2022-11-20T17:59:33;27.37;;;18.17;;
2976;SDS011;1498;51.500;7.440;2022-11-20T18:01:59;29.43;;;18.23;;
2976;SDS011;1498;51.500;7.440;2022-11-20T18:04:24;27.73;;;18.63;;
2976;SDS011;1498;51.500;7.440;2022-11-20T18:06:50;31.73;;;19.20;;
2976;SDS011;1498;51.500;7.440;2022-11-20T18:09:15;37.77;;;22.00;;
2976;SDS011;1498;51.500;7.440;2022-11-20T18:11:41;44.50;;;24.80;;
2976;SDS011;1498;51.500;7.440;2022-11-20T18:14:10;38.97;;;21.33;;
2976;SDS011;1498;51.500;7.440;2022-11-20T18:16:56;25.83;;;16.10;;
2976;SDS011;1498;51.500;7.440;2022-11-20T18:19:25;24.57;;;14.10;;
2976;SDS011;1498;51.500;7.440;2022-11-20T18:21:52;24.93;;;14.27;;
2976;SDS011;1498;51.500;7.440;2022-11-20T18:24:17;25.30;;;16.70;;
2976;SDS011;1498;51.500;7.440;2022-11-20T18:26:43;23.87;;;15.20;;
2976;SDS011;1498;51.500;7.440;2022-11-20T18:29:09;23.87;;;16.33;;
2976;SDS011;1498;51.500;7.440;2022-11-20T18:31:36;26.67;;;16.03;;
2976;SDS011;1498;51.500;7.440;2022-11-20T18:34:01;22.23;;;14.90;;
2976;SDS011;1498;51.500;7.440;2022-11-20T18:36:27;19.03;;;13.57;;
2976;SDS011;1498;51.500;7.440;2022-11-20T18:38:55;24.20;;;14.93;;
2976;SDS011;1498;51.500;7.440;2022-11-20T18:41:24;25.57;;;16.63;;
2976;SDS011;1498;51.500;7.440;2022-11-20T18:44:11;22.20;;;14.63;;
2976;SDS011;1498;51.500;7.440;2022-11-20T18:46:57;25.90;;;14.60;;
2976;SDS011;1498;51.500;7.440;2022-11-20T18:49:22;21.30;;;12.70;;
2976;SDS011;1498;51.500;7.440;2022-11-20T18:51:48;24.00;;;14.07;;
2976;SDS011;1498;51.500;7.440;2022-11-20T18:54:13;23.00;;;14.33;;
2976;SDS011;1498;51.500;7.440;2022-11-20T18:56:39;19.87;;;13.60;;
2976;SDS011;1498;51.500;7.440;2022-11-20T18:59:06;20.17;;;12.90;;
2976;SDS011;1498;51.500;7.440;2022-11-20T19:01:37;20.27;;;12.23;;
2976;SDS011;1498;51.500;7.440;2022-11-20T19:04:07;17.47;;;11.90;;
2976;SDS011;1498;51.500;7.440;2022-11-20T19:06:36;17.17;;;10.60;;
2976;SDS011;1498;51.500;7.440;2022-11-20T19:09:05;20.17;;;9.70;;
2976;SDS011;1498;51.500;7.440;2022-11-20T19:11:34;13.67;;;10.27;;
2976;SDS011;1498;51.500;7.440;2022-11-20T19:14:01;15.53;;;10.37;;
2976;SDS011;1498;51.500;7.440;2022-11-20T19:16:27;14.80;;;9.50;;
2976;SDS011;1498;51.500;7.440;2022-11-20T19:18:52;11.90;;;7.30;;
2976;SDS011;1498;51.500;7.440;2022-11-20T19:21:19;9.40;;;7.20;;
2976;SDS011;1498;51.500;7.440;2022-11-20T19:23:47;10.20;;;6.87;;
2976;SDS011;1498;51.500;7.440;2022-11-20T19:26:17;12.87;;;9.10;;
2976;SDS011;1498;51.500;7.440;2022-11-20T19:28:43;10.93;;;6.87;;
2976;SDS011;1498;51.500;7.440;2022-11-20T19:31:11;9.87;;;7.53;;
2976;SDS011;1498;51.500;7.440;2022-11-20T19:33:44;8.53;;;5.10;;
2976;SDS011;1498;51.500;7.440;2022-11-20T19:36:14;9.60;;;6.10;;
2976;SDS011;1498;51.500;7.440;2022-11-20T19:38:42;10.03;;;5.27;;
2976;SDS011;1498;51.500;7.440;2022-11-20T19:41:13;7.97;;;6.63;;
2976;SDS011;1498;51.500;7.440;2022-11-20T19:43:40;7.40;;;6.50;;
2976;SDS011;1498;51.500;7.440;2022-11-20T19:46:06;8.37;;;6.70;;
2976;SDS011;1498;51.500;7.440;2022-11-20T19:48:33;8.03;;;6.03;;
2976;SDS011;1498;51.500;7.440;2022-11-20T19:53:38;5.80;;;4.10;;
2976;SDS011;1498;51.500;7.440;2022-11-20T19:56:04;7.80;;;6.60;;
2976;SDS011;1498;51.500;7.440;2022-11-20T19:58:32;6.10;;;4.33;;
2976;SDS011;1498;51.500;7.440;2022-11-20T20:03:32;8.90;;;5.70;;
2976;SDS011;1498;51.500;7.440;2022-11-20T20:06:02;7.87;;;5.40;;
2976;SDS011;1498;51.500;7.440;2022-11-20T20:08:29;8.93;;;5.60;;
2976;SDS011;1498;51.500;7.440;2022-11-20T20:10:54;7.27;;;4.77;;
2976;SDS011;1498;51.500;7.440;2022-11-20T20:13:20;7.83;;;5.40;;
2976;SDS011;1498;51.500;7.440;2022-11-20T20:15:45;7.53;;;5.30;;
2976;SDS011;1498;51.500;7.440;2022-11-20T20:18:11;8.17;;;6.30;;
2976;SDS011;1498;51.500;7.440;2022-11-20T20:20:36;6.50;;;5.53;;
2976;SDS011;1498;51.500;7.440;2022-11-20T20:23:02;7.37;;;5.50;;
2976;SDS011;1498;51.500;7.440;2022-11-20T20:25:31;7.70;;;6.27;;
2976;SDS011;1498;51.500;7.440;2022-11-20T20:27:57;10.80;;;8.17;;
2976;SDS011;1498;51.500;7.440;2022-11-20T20:30:22;10.97;;;9.20;;
2976;SDS011;1498;51.500;7.440;2022-11-20T20:32:48;18.60;;;12.00;;
2976;SDS011;1498;51.500;7.440;2022-11-20T20:35:14;18.90;;;12.73;;
2976;SDS011;1498;51.500;7.440;2022-11-20T20:37:39;26.17;;;18.10;;
2976;SDS011;1498;51.500;7.440;2022-11-20T20:40:05;27.03;;;17.23;;